createdAt,value
2022-10-05T00:00:06.002Z,3.23
2022-10-05T00:02:32.615Z,3.30
2022-10-05T00:04:59.343Z,3.17
2022-10-05T00:07:25.935Z,3.45
2022-10-05T00:09:56.501Z,3.75
2022-10-05T00:12:24.788Z,3.57
2022-10-05T00:14:55.331Z,3.20
2022-10-05T00:17:24.332Z,3.38
2022-10-05T00:19:54.452Z,3.25
2022-10-05T00:22:30.963Z,2.85
2022-10-05T00:25:03.181Z,2.87
2022-10-05T00:27:36.729Z,3.00
2022-10-05T00:30:19.894Z,2.50
2022-10-05T00:32:47.189Z,3.33
2022-10-05T00:35:15.558Z,3.15
2022-10-05T00:37:42.430Z,2.77
2022-10-05T00:40:35.415Z,2.80
2022-10-05T00:43:08.034Z,2.80
2022-10-05T00:45:48.196Z,3.00
2022-10-05T00:48:48.269Z,2.92
2022-10-05T00:51:29.762Z,2.80
2022-10-05T00:54:24.857Z,2.90
2022-10-05T00:57:23.995Z,3.10
2022-10-05T01:00:02.309Z,2.60
2022-10-05T01:03:07.610Z,3.10
2022-10-05T01:05:53.475Z,2.80
2022-10-05T01:08:44.126Z,2.65
2022-10-05T01:11:39.083Z,3.00
2022-10-05T01:14:05.470Z,3.25
2022-10-05T01:16:47.465Z,3.30
2022-10-05T01:19:26.289Z,3.90
2022-10-05T01:22:14.961Z,3.35
2022-10-05T01:24:57.935Z,3.45
2022-10-05T01:27:53.211Z,3.53
2022-10-05T01:30:21.531Z,3.30
2022-10-05T01:32:57.726Z,3.90
2022-10-05T01:35:33.831Z,3.75
2022-10-05T01:38:03.455Z,3.40
2022-10-05T01:40:39.166Z,3.97
2022-10-05T01:43:34.267Z,4.30
2022-10-05T01:46:11.061Z,4.10
2022-10-05T01:48:52.123Z,3.80
2022-10-05T01:51:41.862Z,4.05
2022-10-05T01:54:27.127Z,4.03
2022-10-05T01:57:29.036Z,4.40
2022-10-05T02:00:14.302Z,4.27
2022-10-05T02:03:03.081Z,4.00
2022-10-05T02:05:37.879Z,4.07
2022-10-05T02:08:10.931Z,4.15
2022-10-05T02:10:40.402Z,4.15
2022-10-05T02:13:16.841Z,4.37
2022-10-05T02:16:29.282Z,3.83
2022-10-05T02:19:14.653Z,4.05
2022-10-05T02:21:43.732Z,4.10
2022-10-05T02:24:17.099Z,4.53
2022-10-05T02:26:44.974Z,4.20
2022-10-05T02:29:15.361Z,4.40
2022-10-05T02:31:54.805Z,4.13
2022-10-05T02:34:29.984Z,3.88
2022-10-05T02:37:12.930Z,4.18
2022-10-05T02:39:53.134Z,4.07
2022-10-05T02:42:41.439Z,4.13
2022-10-05T02:45:07.864Z,4.22
2022-10-05T02:48:02.938Z,4.20
2022-10-05T02:50:50.769Z,3.95
2022-10-05T02:53:28.513Z,4.10
2022-10-05T02:56:08.560Z,4.28
2022-10-05T02:58:50.791Z,4.32
2022-10-05T03:01:25.402Z,4.43
2022-10-05T03:04:17.534Z,4.45
2022-10-05T03:07:03.373Z,3.90
2022-10-05T03:09:36.205Z,3.97
2022-10-05T03:12:14.068Z,3.97
2022-10-05T03:14:57.550Z,4.70
2022-10-05T03:17:56.418Z,3.97
2022-10-05T03:20:44.283Z,3.83
2022-10-05T03:23:34.021Z,3.88
2022-10-05T03:26:12.718Z,4.10
2022-10-05T03:29:08.616Z,4.40
2022-10-05T03:31:43.749Z,3.80
2022-10-05T03:34:51.862Z,3.90
2022-10-05T03:37:28.241Z,3.20
2022-10-05T03:40:07.374Z,3.50
2022-10-05T03:42:58.038Z,3.80
2022-10-05T03:45:29.231Z,3.47
2022-10-05T03:48:05.418Z,3.37
2022-10-05T03:50:55.538Z,3.42
2022-10-05T03:53:27.489Z,3.38
2022-10-05T03:56:03.354Z,3.45
2022-10-05T03:58:42.259Z,3.50
2022-10-05T04:01:21.246Z,3.37
2022-10-05T04:03:52.648Z,3.17
2022-10-05T04:06:24.887Z,3.45
2022-10-05T04:09:07.431Z,3.22
2022-10-05T04:11:40.442Z,2.83
2022-10-05T04:14:14.209Z,3.00
2022-10-05T04:16:44.372Z,3.42
2022-10-05T04:19:39.110Z,3.17
2022-10-05T04:22:18.871Z,3.67
2022-10-05T04:25:14.505Z,3.30
2022-10-05T04:28:03.274Z,2.83
2022-10-05T04:30:34.156Z,3.30
2022-10-05T04:33:01.098Z,2.95
2022-10-05T04:36:04.950Z,3.00
2022-10-05T04:38:43.474Z,3.28
2022-10-05T04:41:18.885Z,2.90
2022-10-05T04:44:59.534Z,3.05
2022-10-05T04:47:48.068Z,3.05
2022-10-05T04:50:29.521Z,3.28
2022-10-05T04:53:02.065Z,3.38
2022-10-05T04:55:51.566Z,3.13
2022-10-05T04:58:42.817Z,3.00
2022-10-05T05:01:37.193Z,2.92
2022-10-05T05:04:42.754Z,2.88
2022-10-05T05:07:37.316Z,2.83
2022-10-05T05:10:20.673Z,2.63
2022-10-05T05:13:35.045Z,2.40
2022-10-05T05:16:05.728Z,2.42
2022-10-05T05:18:41.490Z,1.85
2022-10-05T05:21:29.519Z,2.10
2022-10-05T05:24:05.287Z,1.83
2022-10-05T05:27:10.962Z,1.80
2022-10-05T05:29:42.645Z,1.67
2022-10-05T05:32:50.227Z,1.80
2022-10-05T05:35:22.490Z,1.67
2022-10-05T05:38:23.151Z,1.83
2022-10-05T05:40:52.567Z,1.80
2022-10-05T05:43:35.152Z,2.03
2022-10-05T05:46:51.068Z,1.55
2022-10-05T05:49:41.055Z,1.98
2022-10-05T05:52:20.359Z,2.07
2022-10-05T05:54:52.032Z,1.80
2022-10-05T05:57:27.277Z,2.10
2022-10-05T06:00:00.584Z,1.90
2022-10-05T06:02:41.935Z,2.08
2022-10-05T06:05:46.984Z,2.40
2022-10-05T06:08:24.344Z,2.70
2022-10-05T06:11:01.364Z,2.45
2022-10-05T06:13:34.121Z,2.20
2022-10-05T06:16:38.367Z,2.30
2022-10-05T06:19:11.365Z,2.10
2022-10-05T06:21:56.596Z,2.60
2022-10-05T06:24:38.814Z,2.47
2022-10-05T06:27:25.126Z,2.75
2022-10-05T06:30:06.614Z,2.47
2022-10-05T06:32:41.924Z,2.30
2022-10-05T06:35:15.883Z,2.70
2022-10-05T06:38:13.131Z,2.47
2022-10-05T06:40:42.679Z,2.70
2022-10-05T06:43:48.253Z,2.80
2022-10-05T06:46:46.819Z,2.80
2022-10-05T06:49:25.412Z,2.58
2022-10-05T06:51:56.822Z,3.40
2022-10-05T06:54:47.863Z,2.53
2022-10-05T06:57:43.177Z,2.75
2022-10-05T07:00:20.170Z,2.70
2022-10-05T07:03:18.287Z,2.67
2022-10-05T07:06:02.331Z,2.60
2022-10-05T07:08:29.042Z,2.33
2022-10-05T07:11:10.350Z,2.97
2022-10-05T07:14:18.566Z,2.60
2022-10-05T07:17:04.941Z,2.10
2022-10-05T07:19:36.986Z,2.08
2022-10-05T07:22:26.622Z,2.45
2022-10-05T07:25:22.880Z,2.22
2022-10-05T07:28:07.743Z,2.03
2022-10-05T07:30:54.883Z,1.90
2022-10-05T07:33:40.160Z,2.30
2022-10-05T07:36:32.397Z,2.28
2022-10-05T07:40:01.322Z,1.92
2022-10-05T07:42:48.842Z,2.30
2022-10-05T07:45:24.726Z,2.13
2022-10-05T07:47:55.460Z,2.47
2022-10-05T07:50:31.314Z,2.40
2022-10-05T07:53:09.224Z,1.83
2022-10-05T07:55:49.808Z,2.03
2022-10-05T07:58:30.456Z,2.17
2022-10-05T08:01:23.396Z,2.30
2022-10-05T08:04:03.296Z,2.08
2022-10-05T08:06:51.639Z,2.42
2022-10-05T08:09:37.992Z,2.10
2022-10-05T08:12:23.080Z,2.22
2022-10-05T08:14:56.026Z,1.88
2022-10-05T08:17:49.139Z,2.05
2022-10-05T08:20:16.805Z,2.05
2022-10-05T08:22:54.207Z,1.73
2022-10-05T08:25:30.353Z,2.17
2022-10-05T08:28:09.986Z,2.35
2022-10-05T08:30:51.625Z,1.90
2022-10-05T08:33:20.295Z,2.00
2022-10-05T08:36:07.487Z,2.00
2022-10-05T08:38:35.583Z,2.35
2022-10-05T08:41:24.630Z,2.08
2022-10-05T08:44:17.733Z,1.75
2022-10-05T08:47:10.017Z,1.95
2022-10-05T08:49:46.065Z,2.20
2022-10-05T08:53:06.695Z,1.83
2022-10-05T08:55:35.930Z,2.10
2022-10-05T08:58:39.966Z,1.70
2022-10-05T09:01:39.986Z,1.85
2022-10-05T09:04:44.283Z,1.90
2022-10-05T09:07:36.764Z,1.80
2022-10-05T09:10:25.481Z,1.63
2022-10-05T09:13:10.860Z,1.77
2022-10-05T09:15:51.115Z,1.92
2022-10-05T09:18:29.889Z,1.73
2022-10-05T09:21:09.283Z,1.70
2022-10-05T09:23:44.111Z,1.40
2022-10-05T09:26:42.363Z,1.45
2022-10-05T09:29:39.369Z,1.50
2022-10-05T09:32:21.010Z,1.70
2022-10-05T09:35:06.429Z,1.45
2022-10-05T09:38:03.946Z,1.73
2022-10-05T09:40:41.705Z,1.67
2022-10-05T09:43:18.792Z,2.20
2022-10-05T09:45:54.588Z,2.07
2022-10-05T09:48:31.759Z,1.90
2022-10-05T09:51:26.002Z,2.13
2022-10-05T09:54:03.703Z,1.90
2022-10-05T09:56:42.978Z,1.58
2022-10-05T09:59:31.378Z,1.50
2022-10-05T10:02:17.191Z,1.40
2022-10-05T10:05:20.151Z,1.30
2022-10-05T10:08:14.675Z,1.02
2022-10-05T10:11:00.122Z,1.10
2022-10-05T10:13:53.913Z,1.17
2022-10-05T10:16:53.827Z,1.40
2022-10-05T10:19:56.937Z,1.38
2022-10-05T10:22:45.318Z,1.10
2022-10-05T10:25:45.685Z,1.80
2022-10-05T10:28:15.197Z,1.53
2022-10-05T10:31:15.823Z,1.40
2022-10-05T10:34:22.010Z,1.77
2022-10-05T10:37:14.283Z,1.80
2022-10-05T10:39:56.368Z,1.77
2022-10-05T10:42:47.463Z,1.57
2022-10-05T10:45:32.671Z,2.10
2022-10-05T10:48:11.342Z,1.90
2022-10-05T10:50:56.623Z,1.80
2022-10-05T10:53:40.476Z,2.13
2022-10-05T10:56:22.226Z,1.53
2022-10-05T10:58:51.656Z,1.75
2022-10-05T11:01:24.272Z,2.00
2022-10-05T11:04:26.807Z,1.85
2022-10-05T11:07:21.029Z,1.60
2022-10-05T11:10:03.213Z,1.90
2022-10-05T11:12:49.006Z,1.88
2022-10-05T11:15:45.745Z,1.75
2022-10-05T11:18:30.724Z,1.80
2022-10-05T11:21:25.832Z,2.13
2022-10-05T11:24:23.266Z,1.80
2022-10-05T11:27:09.050Z,2.00
2022-10-05T11:29:56.214Z,2.00
2022-10-05T11:32:53.644Z,1.58
2022-10-05T11:35:32.284Z,1.83
2022-10-05T11:38:34.330Z,2.00
2022-10-05T11:41:13.169Z,1.80
2022-10-05T11:44:07.756Z,1.70
2022-10-05T11:47:02.950Z,1.75
2022-10-05T12:19:15.195Z,1.65
2022-10-05T12:31:38.590Z,1.50
2022-10-05T12:43:05.907Z,1.55
2022-10-05T12:46:24.265Z,1.50
2022-10-05T13:52:36.229Z,1.15
2022-10-05T14:22:04.224Z,1.10
2022-10-05T15:14:40.125Z,0.90
2022-10-05T15:22:54.434Z,0.67
2022-10-05T15:38:49.966Z,1.08
2022-10-05T15:45:33.004Z,1.00
2022-10-05T15:48:05.309Z,0.90
2022-10-05T15:50:38.137Z,1.02
2022-10-05T16:01:12.530Z,0.95
2022-10-05T16:08:19.307Z,0.93
2022-10-05T16:14:45.698Z,1.10
2022-10-05T16:21:27.886Z,0.85
2022-10-05T16:32:27.691Z,1.00
2022-10-05T16:42:35.705Z,0.65
2022-10-05T16:45:23.759Z,1.00
2022-10-05T16:52:21.753Z,0.85
2022-10-05T16:54:55.000Z,0.90
2022-10-05T16:57:56.645Z,0.90
2022-10-05T17:08:55.106Z,0.85
2022-10-05T17:19:42.196Z,0.88
2022-10-05T17:29:47.704Z,1.23
2022-10-05T17:32:55.694Z,0.95
2022-10-05T17:35:51.856Z,1.13
2022-10-05T17:38:23.202Z,1.43
2022-10-05T17:44:39.867Z,1.20
2022-10-05T17:47:11.387Z,0.93
2022-10-05T17:49:37.988Z,0.90
2022-10-05T17:52:42.884Z,0.80
2022-10-05T17:55:38.282Z,1.50
2022-10-05T17:58:23.921Z,1.02
2022-10-05T18:00:56.660Z,1.10
2022-10-05T18:07:21.860Z,1.00
2022-10-05T18:10:17.504Z,1.73
2022-10-05T18:13:10.887Z,1.25
2022-10-05T18:15:44.878Z,1.73
2022-10-05T18:18:32.919Z,1.27
2022-10-05T18:21:22.882Z,1.60
2022-10-05T18:23:58.454Z,1.33
2022-10-05T18:26:59.517Z,1.17
2022-10-05T18:30:02.900Z,0.80
2022-10-05T18:32:38.209Z,1.08
2022-10-05T18:35:32.725Z,1.20
2022-10-05T18:38:32.868Z,1.10
2022-10-05T18:41:21.430Z,1.20
2022-10-05T18:44:17.180Z,0.93
2022-10-05T18:47:07.188Z,0.90
2022-10-05T18:49:53.695Z,1.10
2022-10-05T18:53:12.803Z,0.90
2022-10-05T18:55:47.705Z,1.30
2022-10-05T18:58:35.145Z,1.35
2022-10-05T19:01:16.904Z,1.58
2022-10-05T19:03:43.483Z,1.57
2022-10-05T19:06:26.886Z,1.40
2022-10-05T19:12:25.293Z,1.20
2022-10-05T19:15:13.193Z,1.40
2022-10-05T19:18:12.174Z,1.00
2022-10-05T19:20:53.903Z,1.20
2022-10-05T19:23:47.585Z,1.02
2022-10-05T19:26:33.787Z,1.30
2022-10-05T19:29:26.983Z,1.20
2022-10-05T19:32:02.112Z,1.27
2022-10-05T19:34:43.431Z,1.30
2022-10-05T19:37:20.794Z,1.60
2022-10-05T19:39:54.138Z,1.40
2022-10-05T19:42:58.437Z,1.20
2022-10-05T19:45:27.407Z,1.43
2022-10-05T19:48:26.890Z,1.10
2022-10-05T19:51:01.263Z,0.60
2022-10-05T19:53:37.019Z,0.30
2022-10-05T19:56:25.205Z,0.30
2022-10-05T19:58:56.471Z,0.20
2022-10-05T20:01:31.346Z,0.25
2022-10-05T20:04:02.255Z,0.15
2022-10-05T20:06:31.126Z,0.10
2022-10-05T20:09:01.306Z,0.20
2022-10-05T20:11:29.160Z,0.20
2022-10-05T20:13:56.829Z,0.20
2022-10-05T20:16:47.647Z,0.10
2022-10-05T20:19:56.745Z,0.20
2022-10-05T20:22:31.472Z,0.10
2022-10-05T20:25:01.179Z,0.20
2022-10-05T20:27:37.119Z,0.35
2022-10-05T20:30:09.250Z,0.60
2022-10-05T20:32:35.717Z,0.40
2022-10-05T20:35:06.853Z,0.50
2022-10-05T20:37:41.292Z,0.40
2022-10-05T20:40:11.123Z,0.50
2022-10-05T20:42:37.789Z,0.60
2022-10-05T20:45:06.367Z,0.88
2022-10-05T20:47:33.753Z,0.30
2022-10-05T20:50:07.685Z,0.20
2022-10-05T20:52:38.133Z,0.20
2022-10-05T20:55:08.391Z,0.20
2022-10-05T20:57:38.498Z,0.30
2022-10-05T21:00:06.177Z,0.20
2022-10-05T21:02:33.032Z,0.20
2022-10-05T21:04:59.764Z,0.20
2022-10-05T21:07:31.374Z,0.20
2022-10-05T21:09:58.349Z,0.17
2022-10-05T21:12:24.903Z,0.40
2022-10-05T21:14:53.720Z,0.20
2022-10-05T21:17:20.407Z,0.20
2022-10-05T21:19:57.533Z,0.17
2022-10-05T21:22:26.574Z,0.10
2022-10-05T21:24:55.114Z,0.10
2022-10-05T21:27:21.661Z,0.20
2022-10-05T21:29:49.949Z,0.10
2022-10-05T21:32:16.617Z,0.20
2022-10-05T21:34:43.261Z,0.20
2022-10-05T21:37:12.075Z,0.10
2022-10-05T21:39:39.979Z,0.10
2022-10-05T21:42:14.133Z,0.20
2022-10-05T21:44:46.716Z,0.20
2022-10-05T21:47:13.729Z,0.10
2022-10-05T21:49:41.548Z,0.10
2022-10-05T21:52:08.210Z,0.30
2022-10-05T21:54:35.289Z,0.10
2022-10-05T21:57:03.008Z,0.20
2022-10-05T21:59:32.598Z,0.10
2022-10-05T22:01:59.457Z,0.10
2022-10-05T22:04:26.031Z,0.10
2022-10-05T22:06:55.537Z,0.10
2022-10-05T22:09:22.078Z,0.20
2022-10-05T22:11:49.240Z,0.10
2022-10-05T22:14:16.338Z,0.40
2022-10-05T22:16:44.582Z,0.20
2022-10-05T22:19:16.174Z,0.20
2022-10-05T22:21:42.903Z,0.10
2022-10-05T22:24:11.640Z,0.20
2022-10-05T22:26:40.366Z,0.13
2022-10-05T22:29:09.802Z,0.10
2022-10-05T22:31:36.832Z,0.28
2022-10-05T22:34:03.344Z,0.20
2022-10-05T22:36:29.854Z,0.20
2022-10-05T22:38:56.497Z,0.20
2022-10-05T22:41:23.172Z,0.10
2022-10-05T22:43:50.847Z,0.13
2022-10-05T22:46:18.264Z,0.20
2022-10-05T22:48:45.436Z,0.30
2022-10-05T22:51:12.204Z,0.22
2022-10-05T22:53:38.798Z,0.20
2022-10-05T22:56:10.960Z,0.30
2022-10-05T22:58:38.391Z,0.25
2022-10-05T23:01:08.312Z,0.28
2022-10-05T23:03:35.373Z,0.30
2022-10-05T23:06:07.631Z,0.20
2022-10-05T23:08:35.910Z,0.30
2022-10-05T23:11:13.746Z,0.40
2022-10-05T23:13:40.797Z,0.20
2022-10-05T23:16:12.888Z,0.30
2022-10-05T23:18:40.102Z,0.40
2022-10-05T23:21:08.796Z,0.20
2022-10-05T23:23:37.098Z,0.38
2022-10-05T23:26:05.364Z,0.30
2022-10-05T23:28:32.529Z,0.35
2022-10-05T23:31:07.824Z,0.70
2022-10-05T23:33:35.427Z,0.50
2022-10-05T23:36:04.772Z,0.68
2022-10-05T23:38:31.531Z,0.40
2022-10-05T23:40:59.778Z,0.63
2022-10-05T23:43:27.296Z,0.40
2022-10-05T23:45:53.963Z,1.00
2022-10-05T23:48:20.567Z,0.50
2022-10-05T23:50:48.249Z,0.50
2022-10-05T23:53:16.014Z,0.55
2022-10-05T23:55:43.003Z,0.50
2022-10-05T23:58:10.063Z,0.30
